createdAt,value
2023-02-20T00:00:36.930Z,9.20
2023-02-20T00:03:08.877Z,9.10
2023-02-20T00:05:40.806Z,9.20
2023-02-20T00:08:12.640Z,9.20
2023-02-20T00:10:44.558Z,9.20
2023-02-20T00:13:16.412Z,9.20
2023-02-20T00:15:48.355Z,9.20
2023-02-20T00:18:20.425Z,9.20
2023-02-20T00:20:52.284Z,9.30
2023-02-20T00:23:24.262Z,9.30
2023-02-20T00:25:56.065Z,9.40
2023-02-20T00:28:29.842Z,9.40
2023-02-20T00:31:01.792Z,9.40
2023-02-20T00:33:34.784Z,9.30
2023-02-20T00:36:07.053Z,9.20
2023-02-20T00:38:38.920Z,9.20
2023-02-20T00:41:12.341Z,9.30
2023-02-20T00:43:44.298Z,9.40
2023-02-20T00:46:17.496Z,9.40
2023-02-20T00:48:50.991Z,9.40
2023-02-20T00:51:41.515Z,9.30
2023-02-20T00:54:13.554Z,9.30
2023-02-20T00:56:45.438Z,9.30
2023-02-20T00:59:17.293Z,9.30
2023-02-20T01:01:49.270Z,9.20
2023-02-20T01:04:21.367Z,9.20
2023-02-20T01:06:53.579Z,9.30
2023-02-20T01:09:26.438Z,9.40
2023-02-20T01:11:58.332Z,9.50
2023-02-20T01:14:30.362Z,9.50
2023-02-20T01:17:02.626Z,9.50
2023-02-20T01:19:34.824Z,9.50
2023-02-20T01:22:08.917Z,9.40
2023-02-20T01:24:41.896Z,9.40
2023-02-20T01:27:14.021Z,9.40
2023-02-20T01:29:46.086Z,9.30
2023-02-20T01:32:19.248Z,9.30
2023-02-20T01:34:51.144Z,9.20
2023-02-20T01:37:23.036Z,9.20
2023-02-20T01:39:54.968Z,9.10
2023-02-20T01:42:30.444Z,9.10
2023-02-20T01:45:23.539Z,9.20
2023-02-20T01:47:57.214Z,9.20
2023-02-20T01:50:42.294Z,9.20
2023-02-20T01:53:18.031Z,9.10
2023-02-20T01:55:52.596Z,9.00
2023-02-20T01:58:31.327Z,9.00
2023-02-20T02:01:05.089Z,8.90
2023-02-20T02:03:41.361Z,8.90
2023-02-20T02:06:14.936Z,8.90
2023-02-20T02:08:47.111Z,9.00
2023-02-20T02:11:22.874Z,9.10
2023-02-20T02:13:56.056Z,9.10
2023-02-20T02:16:38.587Z,9.00
2023-02-20T02:19:35.181Z,9.00
2023-02-20T02:22:31.092Z,9.10
2023-02-20T02:25:25.159Z,9.10
2023-02-20T02:28:22.645Z,9.30
2023-02-20T02:31:22.368Z,9.30
2023-02-20T02:34:19.368Z,9.30
2023-02-20T02:37:03.734Z,9.30
2023-02-20T02:39:49.098Z,9.30
2023-02-20T02:42:26.863Z,9.40
2023-02-20T02:45:12.577Z,9.50
2023-02-20T02:47:44.358Z,9.50
2023-02-20T02:50:27.538Z,9.30
2023-02-20T02:52:59.712Z,9.20
2023-02-20T02:55:33.966Z,9.10
2023-02-20T02:58:06.452Z,9.00
2023-02-20T03:00:43.956Z,9.10
2023-02-20T03:03:28.875Z,9.10
2023-02-20T03:06:12.188Z,9.10
2023-02-20T03:08:47.364Z,9.10
2023-02-20T03:11:22.229Z,9.20
2023-02-20T03:14:37.063Z,9.20
2023-02-20T03:17:15.873Z,9.10
2023-02-20T03:19:51.057Z,9.10
2023-02-20T03:22:32.402Z,9.10
2023-02-20T03:25:22.916Z,9.00
2023-02-20T03:28:13.430Z,9.00
2023-02-20T03:30:49.860Z,9.10
2023-02-20T03:33:56.106Z,9.20
2023-02-20T03:36:52.633Z,9.30
2023-02-20T03:39:49.458Z,9.30
2023-02-20T03:42:41.689Z,9.30
2023-02-20T03:45:23.355Z,9.20
2023-02-20T03:48:01.172Z,9.20
2023-02-20T03:50:54.629Z,9.30
2023-02-20T03:53:29.556Z,9.20
2023-02-20T03:56:06.106Z,9.20
2023-02-20T03:58:43.697Z,9.30
2023-02-20T04:01:18.726Z,9.30
2023-02-20T04:03:52.390Z,9.30
2023-02-20T04:06:28.835Z,9.20
2023-02-20T04:09:12.247Z,9.30
2023-02-20T04:11:54.138Z,9.20
2023-02-20T04:14:29.339Z,9.20
2023-02-20T04:17:09.174Z,9.10
2023-02-20T04:19:41.515Z,9.10
2023-02-20T04:22:20.563Z,9.10
2023-02-20T04:25:03.625Z,9.10
2023-02-20T04:27:36.233Z,9.30
2023-02-20T04:30:10.436Z,9.40
2023-02-20T04:32:42.893Z,9.40
2023-02-20T04:35:20.025Z,9.40
2023-02-20T04:37:53.498Z,9.40
2023-02-20T04:40:25.786Z,9.30
2023-02-20T04:42:58.242Z,9.30
2023-02-20T04:45:30.332Z,9.20
2023-02-20T04:48:04.125Z,9.20
2023-02-20T04:50:36.170Z,9.30
2023-02-20T04:53:09.894Z,9.40
2023-02-20T04:55:45.494Z,9.40
2023-02-20T04:58:46.977Z,9.40
2023-02-20T05:01:24.185Z,9.40
2023-02-20T05:03:56.360Z,9.50
2023-02-20T05:06:28.288Z,9.40
2023-02-20T05:09:00.214Z,9.40
2023-02-20T05:11:32.310Z,9.40
2023-02-20T05:14:05.232Z,9.40
2023-02-20T05:16:40.946Z,9.40
2023-02-20T05:19:14.044Z,9.50
2023-02-20T05:22:05.835Z,9.50
2023-02-20T05:24:39.299Z,9.40
2023-02-20T05:27:14.820Z,9.30
2023-02-20T05:29:48.667Z,9.40
2023-02-20T05:32:22.044Z,9.40
2023-02-20T05:34:54.641Z,9.40
2023-02-20T05:37:27.763Z,9.40
2023-02-20T05:39:59.683Z,9.40
2023-02-20T05:42:31.657Z,9.40
2023-02-20T05:45:04.507Z,9.40
2023-02-20T05:47:39.233Z,9.40
2023-02-20T05:50:11.184Z,9.40
2023-02-20T05:52:43.532Z,9.40
2023-02-20T05:55:15.662Z,9.40
2023-02-20T05:57:47.664Z,9.40
2023-02-20T06:00:20.121Z,9.40
2023-02-20T06:02:52.128Z,9.40
2023-02-20T06:05:24.953Z,9.40
2023-02-20T06:07:56.921Z,9.40
2023-02-20T06:10:28.860Z,9.30
2023-02-20T06:13:00.924Z,9.20
2023-02-20T06:15:32.905Z,9.20
2023-02-20T06:18:04.984Z,9.10
2023-02-20T06:20:36.904Z,9.10
2023-02-20T06:23:08.858Z,9.10
2023-02-20T06:25:40.747Z,9.10
2023-02-20T06:28:12.801Z,9.00
2023-02-20T06:30:44.873Z,9.10
2023-02-20T06:33:16.957Z,9.20
2023-02-20T06:35:48.855Z,9.20
2023-02-20T06:38:20.762Z,9.30
2023-02-20T06:40:52.755Z,9.20
2023-02-20T06:43:24.672Z,9.30
2023-02-20T06:45:56.953Z,9.40
2023-02-20T06:48:28.940Z,9.50
2023-02-20T06:51:00.833Z,9.60
2023-02-20T06:53:38.142Z,9.70
2023-02-20T06:56:12.057Z,9.70
2023-02-20T06:58:46.482Z,9.60
2023-02-20T07:01:19.703Z,9.60
2023-02-20T07:03:53.559Z,9.50
2023-02-20T07:06:26.714Z,9.40
2023-02-20T07:08:58.758Z,9.40
2023-02-20T07:11:30.650Z,9.50
2023-02-20T07:14:02.634Z,9.60
2023-02-20T07:16:34.665Z,9.70
2023-02-20T07:19:06.512Z,9.70
2023-02-20T07:21:38.665Z,9.70
2023-02-20T07:24:10.568Z,9.70
2023-02-20T07:26:42.791Z,9.80
2023-02-20T07:29:15.281Z,9.80
2023-02-20T07:31:47.241Z,9.90
2023-02-20T07:34:19.265Z,9.90
2023-02-20T07:36:51.339Z,9.90
2023-02-20T07:39:23.302Z,10.00
2023-02-20T07:41:55.612Z,10.10
2023-02-20T07:44:49.564Z,10.10
2023-02-20T07:47:21.433Z,10.00
2023-02-20T07:49:53.327Z,10.00
2023-02-20T07:52:25.231Z,9.90
2023-02-20T07:54:57.325Z,10.00
2023-02-20T07:57:37.319Z,10.00
2023-02-20T08:00:11.289Z,10.10
2023-02-20T08:02:46.740Z,10.10
2023-02-20T08:05:19.200Z,10.20
2023-02-20T08:07:51.734Z,10.40
2023-02-20T08:10:26.872Z,10.50
2023-02-20T08:12:59.185Z,10.60
2023-02-20T08:15:31.119Z,10.80
2023-02-20T08:18:06.133Z,10.90
2023-02-20T08:20:44.840Z,10.80
2023-02-20T08:23:22.086Z,10.80
2023-02-20T08:25:54.403Z,10.90
2023-02-20T08:28:26.318Z,10.90
2023-02-20T08:30:58.761Z,10.80
2023-02-20T08:33:30.809Z,10.90
2023-02-20T08:36:02.883Z,11.00
2023-02-20T08:38:37.325Z,11.00
2023-02-20T08:41:11.685Z,11.00
2023-02-20T08:43:44.411Z,11.00
2023-02-20T08:46:16.855Z,11.00
2023-02-20T08:48:48.865Z,11.10
2023-02-20T08:51:21.675Z,11.20
2023-02-20T08:53:54.285Z,11.20
2023-02-20T08:56:26.287Z,11.20
2023-02-20T08:58:58.603Z,11.20
2023-02-20T09:01:30.763Z,11.30
2023-02-20T09:07:15.092Z,11.30
2023-02-20T09:09:47.099Z,11.50
2023-02-20T09:12:19.640Z,11.60
2023-02-20T09:14:51.610Z,11.70
2023-02-20T09:17:23.497Z,11.80
2023-02-20T09:19:55.909Z,11.80
2023-02-20T09:22:28.102Z,11.80
2023-02-20T09:25:00.319Z,11.70
2023-02-20T09:27:32.539Z,11.70
2023-02-20T09:30:05.477Z,11.70
2023-02-20T09:32:37.372Z,11.80
2023-02-20T09:35:15.520Z,12.00
2023-02-20T09:37:47.496Z,12.10
2023-02-20T09:40:24.743Z,12.20
2023-02-20T09:43:42.390Z,12.30
2023-02-20T09:46:22.982Z,12.50
2023-02-20T09:49:06.522Z,12.70
2023-02-20T09:51:43.194Z,12.70
2023-02-20T09:54:27.843Z,12.80
2023-02-20T09:57:03.937Z,13.10
2023-02-20T09:59:48.871Z,13.30
2023-02-20T10:02:33.651Z,13.60
2023-02-20T10:05:28.343Z,13.80
2023-02-20T10:08:02.684Z,14.20
2023-02-20T10:10:39.482Z,14.50
2023-02-20T10:13:52.628Z,14.80
2023-02-20T10:16:46.623Z,15.10
2023-02-20T10:19:29.738Z,15.20
2023-02-20T10:22:07.423Z,15.40
2023-02-20T10:24:57.614Z,15.50
2023-02-20T10:27:35.298Z,15.60
2023-02-20T10:30:11.273Z,15.80
2023-02-20T10:33:03.440Z,16.00
2023-02-20T10:35:45.703Z,16.00
2023-02-20T10:38:28.121Z,16.50
2023-02-20T10:41:32.786Z,16.60
2023-02-20T10:44:10.507Z,16.60
2023-02-20T10:46:54.182Z,16.70
2023-02-20T10:49:55.572Z,17.10
2023-02-20T10:52:34.487Z,17.40
2023-02-20T10:55:17.699Z,17.60
2023-02-20T10:58:04.778Z,17.60
2023-02-20T11:01:02.780Z,17.50
2023-02-20T11:03:56.144Z,17.30
2023-02-20T11:06:34.035Z,17.00
2023-02-20T11:09:05.958Z,16.70
2023-02-20T11:11:45.051Z,16.40
2023-02-20T11:14:40.918Z,15.80
2023-02-20T11:17:21.194Z,15.80
2023-02-20T11:19:58.101Z,16.00
2023-02-20T11:22:43.655Z,16.10
2023-02-20T11:25:18.022Z,16.00
2023-02-20T11:28:14.022Z,16.20
2023-02-20T11:30:49.967Z,16.30
2023-02-20T11:33:23.807Z,16.40
2023-02-20T11:36:10.145Z,16.40
2023-02-20T11:38:42.512Z,16.40
2023-02-20T11:41:26.573Z,16.60
2023-02-20T11:44:20.029Z,16.40
2023-02-20T11:47:21.177Z,16.20
2023-02-20T11:50:20.626Z,16.30
2023-02-20T11:53:03.011Z,16.30
2023-02-20T11:55:35.552Z,16.40
2023-02-20T11:58:31.234Z,16.40
2023-02-20T12:01:03.247Z,16.40
2023-02-20T12:03:36.553Z,16.50
2023-02-20T12:06:43.683Z,16.40
2023-02-20T12:09:20.791Z,16.40
2023-02-20T12:11:55.336Z,16.40
2023-02-20T12:14:27.274Z,16.40
2023-02-20T12:17:33.940Z,16.20
2023-02-20T12:20:19.012Z,16.10
2023-02-20T12:23:48.052Z,16.00
2023-02-20T12:26:47.822Z,16.00
2023-02-20T12:29:35.703Z,16.20
2023-02-20T12:32:22.354Z,16.20
2023-02-20T12:35:12.841Z,16.20
2023-02-20T12:38:12.771Z,16.20
2023-02-20T12:40:59.311Z,16.30
2023-02-20T12:44:13.520Z,16.50
2023-02-20T12:47:10.758Z,16.40
2023-02-20T12:50:13.842Z,16.40
2023-02-20T12:53:33.116Z,16.40
2023-02-20T12:56:19.892Z,16.40
2023-02-20T12:59:01.778Z,16.20
2023-02-20T13:01:40.199Z,16.00
2023-02-20T13:04:36.167Z,15.90
2023-02-20T13:07:19.980Z,15.80
2023-02-20T13:10:06.867Z,15.50
2023-02-20T13:12:38.753Z,15.50
2023-02-20T13:15:19.448Z,15.40
2023-02-20T13:17:57.943Z,15.50
2023-02-20T13:20:44.330Z,15.40
2023-02-20T13:23:16.350Z,15.30
2023-02-20T13:25:52.886Z,15.30
2023-02-20T13:28:43.656Z,15.20
2023-02-20T13:31:19.892Z,15.30
2023-02-20T13:34:16.012Z,15.40
2023-02-20T13:36:50.013Z,15.40
2023-02-20T13:39:28.292Z,15.40
2023-02-20T13:42:05.089Z,15.40
2023-02-20T13:44:37.030Z,15.40
2023-02-20T13:47:27.796Z,15.30
2023-02-20T13:50:01.041Z,15.20
2023-02-20T13:52:41.021Z,15.20
2023-02-20T13:55:14.892Z,15.30
2023-02-20T13:57:54.665Z,15.20
2023-02-20T14:00:32.416Z,15.10
2023-02-20T14:03:29.088Z,15.00
2023-02-20T14:09:09.780Z,14.50
2023-02-20T14:11:42.005Z,14.60
2023-02-20T14:14:29.771Z,14.70
2023-02-20T14:17:18.112Z,14.70
2023-02-20T14:20:13.023Z,14.70
2023-02-20T14:22:46.365Z,14.60
2023-02-20T14:25:23.375Z,14.50
2023-02-20T14:28:05.480Z,14.20
2023-02-20T14:30:37.568Z,14.10
2023-02-20T14:33:20.674Z,14.10
2023-02-20T14:36:12.182Z,14.10
2023-02-20T14:39:06.127Z,14.00
2023-02-20T14:41:38.364Z,14.00
2023-02-20T14:44:19.108Z,14.00
2023-02-20T14:46:57.003Z,13.90
2023-02-20T14:49:33.660Z,14.00
2023-02-20T14:52:11.249Z,14.10
2023-02-20T14:54:55.522Z,14.20
2023-02-20T14:57:29.802Z,14.20
2023-02-20T15:00:20.758Z,14.20
2023-02-20T15:02:55.799Z,14.10
2023-02-20T15:05:31.755Z,14.10
2023-02-20T15:08:22.844Z,14.10
2023-02-20T15:11:05.656Z,14.20
2023-02-20T15:13:41.483Z,14.20
2023-02-20T15:16:24.681Z,14.30
2023-02-20T15:18:56.857Z,14.30
2023-02-20T15:21:36.379Z,14.30
2023-02-20T15:24:25.090Z,14.50
2023-02-20T15:27:09.005Z,14.60
2023-02-20T15:29:41.412Z,14.50
2023-02-20T15:32:19.049Z,14.60
2023-02-20T15:34:54.493Z,14.60
2023-02-20T15:37:43.091Z,14.50
2023-02-20T15:40:24.501Z,14.50
2023-02-20T15:42:57.458Z,14.50
2023-02-20T15:45:31.030Z,14.50
2023-02-20T15:48:02.925Z,14.50
2023-02-20T15:50:34.872Z,14.40
2023-02-20T15:53:20.049Z,14.30
2023-02-20T15:55:53.938Z,14.30
2023-02-20T15:58:31.451Z,14.20
2023-02-20T16:01:07.012Z,14.00
2023-02-20T16:03:51.223Z,13.90
2023-02-20T16:06:25.029Z,13.80
2023-02-20T16:08:56.957Z,13.80
2023-02-20T16:11:37.809Z,13.80
2023-02-20T16:14:12.711Z,13.70
2023-02-20T16:16:47.700Z,13.60
2023-02-20T16:19:33.357Z,13.60
2023-02-20T16:22:12.838Z,13.50
2023-02-20T16:24:45.566Z,13.40
2023-02-20T16:27:28.240Z,13.30
2023-02-20T16:30:00.705Z,13.30
2023-02-20T16:32:32.790Z,13.10
2023-02-20T16:35:04.812Z,13.10
2023-02-20T16:37:36.656Z,13.10
2023-02-20T16:40:09.110Z,13.10
2023-02-20T16:42:41.559Z,13.00
2023-02-20T16:45:15.940Z,12.80
2023-02-20T16:47:54.164Z,12.80
2023-02-20T16:50:31.040Z,12.70
2023-02-20T16:53:03.316Z,12.70
2023-02-20T16:55:39.544Z,12.70
2023-02-20T16:58:11.779Z,12.70
2023-02-20T17:00:56.497Z,12.70
2023-02-20T17:03:29.289Z,12.60
2023-02-20T17:06:01.179Z,12.40
2023-02-20T17:08:33.022Z,12.20
2023-02-20T17:11:05.081Z,12.00
2023-02-20T17:13:36.943Z,12.00
2023-02-20T17:16:10.047Z,11.90
2023-02-20T17:18:42.321Z,11.80
2023-02-20T17:21:14.379Z,11.80
2023-02-20T17:23:46.366Z,11.80
2023-02-20T17:26:18.342Z,11.70
2023-02-20T17:28:50.176Z,11.60
2023-02-20T17:31:22.803Z,11.40
2023-02-20T17:33:54.815Z,11.40
2023-02-20T17:36:26.710Z,11.30
2023-02-20T17:38:58.970Z,11.20
2023-02-20T17:41:30.856Z,11.10
2023-02-20T17:44:02.704Z,11.00
2023-02-20T17:46:34.660Z,10.80
2023-02-20T17:49:06.555Z,10.60
2023-02-20T17:51:38.444Z,10.50
2023-02-20T17:54:10.972Z,10.50
2023-02-20T17:56:44.345Z,10.50
2023-02-20T17:59:17.138Z,10.40
2023-02-20T18:01:49.350Z,10.30
2023-02-20T18:04:21.544Z,10.30
2023-02-20T18:06:54.472Z,10.20
2023-02-20T18:09:27.450Z,10.10
2023-02-20T18:12:00.559Z,10.10
2023-02-20T18:14:32.473Z,10.00
2023-02-20T18:17:04.425Z,10.00
2023-02-20T18:19:36.322Z,10.00
2023-02-20T18:22:08.240Z,10.00
2023-02-20T18:24:40.193Z,10.00
2023-02-20T18:27:12.671Z,9.90
2023-02-20T18:29:44.753Z,9.90
2023-02-20T18:32:16.803Z,9.90
2023-02-20T18:34:48.929Z,9.90
2023-02-20T18:37:20.888Z,9.90
2023-02-20T18:39:53.025Z,9.90
2023-02-20T18:42:25.526Z,10.00
2023-02-20T18:44:57.396Z,10.00
2023-02-20T18:47:29.585Z,9.90
2023-02-20T18:50:02.019Z,9.80
2023-02-20T18:52:34.007Z,9.80
2023-02-20T18:55:06.483Z,9.70
2023-02-20T18:57:38.375Z,9.70
2023-02-20T19:00:11.315Z,9.60
2023-02-20T19:02:43.657Z,9.50
2023-02-20T19:05:15.693Z,9.40
2023-02-20T19:07:48.199Z,9.40
2023-02-20T19:10:24.657Z,9.30
2023-02-20T19:12:56.636Z,9.30
2023-02-20T19:15:28.612Z,9.30
2023-02-20T19:18:00.523Z,9.40
2023-02-20T19:20:32.703Z,9.40
2023-02-20T19:23:04.872Z,9.40
2023-02-20T19:25:38.174Z,9.30
2023-02-20T19:28:11.555Z,9.20
2023-02-20T19:30:43.560Z,9.20
2023-02-20T19:33:15.591Z,9.20
2023-02-20T19:35:48.501Z,9.20
2023-02-20T19:38:20.505Z,9.20
2023-02-20T19:40:52.681Z,9.10
2023-02-20T19:43:26.545Z,9.10
2023-02-20T19:45:58.539Z,9.10
2023-02-20T19:48:31.068Z,9.10
2023-02-20T19:51:03.432Z,9.10
2023-02-20T19:53:35.980Z,9.10
2023-02-20T19:56:08.595Z,9.00
2023-02-20T19:58:41.461Z,9.00
2023-02-20T20:01:18.837Z,9.00
2023-02-20T20:03:51.794Z,9.00
2023-02-20T20:06:26.408Z,9.00
2023-02-20T20:09:12.640Z,8.90
2023-02-20T20:11:48.535Z,8.90
2023-02-20T20:14:21.405Z,8.90
2023-02-20T20:16:53.315Z,8.80
2023-02-20T20:19:25.386Z,8.70
2023-02-20T20:21:57.293Z,8.70
2023-02-20T20:24:29.447Z,8.60
2023-02-20T20:27:01.332Z,8.60
2023-02-20T20:29:33.243Z,8.50
2023-02-20T20:32:05.475Z,8.40
2023-02-20T20:34:37.396Z,8.40
2023-02-20T20:37:09.298Z,8.40
2023-02-20T20:39:41.221Z,8.40
2023-02-20T20:42:13.585Z,8.40
2023-02-20T20:44:45.535Z,8.40
2023-02-20T20:47:18.534Z,8.30
2023-02-20T20:49:50.646Z,8.30
2023-02-20T20:52:26.719Z,8.30
2023-02-20T20:55:01.254Z,8.30
2023-02-20T20:57:35.727Z,8.50
2023-02-20T21:00:20.519Z,8.50
2023-02-20T21:02:54.097Z,8.50
2023-02-20T21:05:30.083Z,8.50
2023-02-20T21:08:02.734Z,8.60
2023-02-20T21:10:36.342Z,8.60
2023-02-20T21:13:08.295Z,8.60
2023-02-20T21:15:40.182Z,8.50
2023-02-20T21:18:12.080Z,8.40
2023-02-20T21:20:44.082Z,8.40
2023-02-20T21:23:16.148Z,8.40
2023-02-20T21:25:48.127Z,8.30
2023-02-20T21:28:20.006Z,8.20
2023-02-20T21:30:52.034Z,8.20
2023-02-20T21:33:24.030Z,8.20
2023-02-20T21:35:56.091Z,8.30
2023-02-20T21:38:28.209Z,8.20
2023-02-20T21:41:00.955Z,8.20
2023-02-20T21:43:51.320Z,8.10
2023-02-20T21:46:23.195Z,8.10
2023-02-20T21:48:55.048Z,8.10
2023-02-20T21:51:27.033Z,8.10
2023-02-20T21:53:59.061Z,8.10
2023-02-20T21:56:31.025Z,8.00
2023-02-20T21:59:05.145Z,8.00
2023-02-20T22:01:39.570Z,8.00
2023-02-20T22:04:13.306Z,7.90
2023-02-20T22:06:47.464Z,7.90
2023-02-20T22:09:39.307Z,7.90
2023-02-20T22:12:29.877Z,7.90
2023-02-20T22:15:21.124Z,7.90
2023-02-20T22:18:12.197Z,7.90
2023-02-20T22:21:02.777Z,7.80
2023-02-20T22:23:53.080Z,7.90
2023-02-20T22:26:43.584Z,7.90
2023-02-20T22:29:33.927Z,8.00
2023-02-20T22:32:24.893Z,8.10
2023-02-20T22:35:15.406Z,8.10
2023-02-20T22:38:05.758Z,8.10
2023-02-20T22:40:56.498Z,8.20
2023-02-20T22:43:47.350Z,8.10
2023-02-20T22:46:40.868Z,8.10
2023-02-20T22:49:31.097Z,8.10
2023-02-20T22:52:21.332Z,8.10
2023-02-20T22:55:11.655Z,8.00
2023-02-20T22:58:01.917Z,8.00
2023-02-20T23:00:52.523Z,8.00
2023-02-20T23:03:42.884Z,7.90
2023-02-20T23:06:37.853Z,7.90
2023-02-20T23:09:30.134Z,7.80
2023-02-20T23:12:20.798Z,7.90
2023-02-20T23:15:11.674Z,7.80
2023-02-20T23:18:03.580Z,7.70
2023-02-20T23:20:54.149Z,7.70
2023-02-20T23:23:44.572Z,7.70
2023-02-20T23:26:34.828Z,7.70
2023-02-20T23:29:25.216Z,7.70
2023-02-20T23:32:15.821Z,7.80
2023-02-20T23:35:06.359Z,7.80
2023-02-20T23:37:56.972Z,7.80
2023-02-20T23:40:47.489Z,7.80
2023-02-20T23:43:37.714Z,7.80
2023-02-20T23:46:28.005Z,7.80
2023-02-20T23:49:18.467Z,7.90
2023-02-20T23:52:16.372Z,7.90
2023-02-20T23:55:07.529Z,7.90
2023-02-20T23:57:58.054Z,7.90
